<?xml version="1.0" encoding="UTF-8" standalone="no" ?>
<gpx xmlns="http://www.topografix.com/GPX/1/1" xmlns:xsi="http://www.w3.org/2001/XMLSchema-instance" xsi:schemaLocation="http://www.topografix.com/GPX/1/1 http://www.topografix.com/GPX/1/1/gpx.xsd" version="1.1" creator="VisuGPX - https://www.visugpx.com">
  <metadata>
    <name>La Calaz</name>
    <desc><![CDATA[<p>Heure de départ: 09:26 27 mars 2025<br/>Heure d'arrivée: 11:52 27 mars 2025<br/>Distance: 3,7 km (02:26)<br/>Temps déplacement: 01:15<br/>Vitesse moyenne: 1,52 km/h<br/>Vitesse moyenne mouv.: 2,97 km/h<br/>Vitesse Max.: 4,6 km/h<br/>Altitude minimale: 1196 m<br/>Altitude maximale: 2065 m<br/>Vitesse de montée: 377,9 m/h<br/>Vitesse de descente: -134,4 m/h<br/>Gain d'altitude: 876 m<br/>Perte d'altitude: -11 m<br/>Temps de montée: 02:19<br/>Temps de descente: 00:04<br/></p><hr align="center" width="480" style="height: 2px; width: 517px"/>]]></desc>
  </metadata>
  <trk>
    <name><![CDATA[2025-03-27 09:26]]></name>
    <desc><![CDATA[<p>Heure de départ: 09:26 27 mars 2025<br/>Heure d'arrivée: 11:52 27 mars 2025<br/>Distance: 3,7 km (02:26)<br/>Temps déplacement: 01:15<br/>Vitesse moyenne: 1,52 km/h<br/>Vitesse moyenne mouv.: 2,97 km/h<br/>Vitesse Max.: 4,6 km/h<br/>Altitude minimale: 1196 m<br/>Altitude maximale: 2065 m<br/>Vitesse de montée: 377,9 m/h<br/>Vitesse de descente: -134,4 m/h<br/>Gain d'altitude: 876 m<br/>Perte d'altitude: -11 m<br/>Temps de montée: 02:19<br/>Temps de descente: 00:04<br/></p><hr align="center" width="480" style="height: 2px; width: 517px"/>

<p>Heure de départ: 12:46 27 mars 2025<br/>Heure d'arrivée: 15:20 27 mars 2025<br/>Distance: 3,8 km (02:33)<br/>Temps déplacement: 01:13<br/>Vitesse moyenne: 1,47 km/h<br/>Vitesse moyenne mouv.: 3,06 km/h<br/>Vitesse Max.: 5,75 km/h<br/>Altitude minimale: 1216 m<br/>Altitude maximale: 2074 m<br/>Vitesse de descente: -332 m/h<br/>Perte d'altitude: -851 m<br/>Temps de descente: 02:33<br/></p><hr align="center" width="480" style="height: 2px; width: 517px"/>]]></desc>
    <extensions>
      <line xmlns="http://www.topografix.com/GPX/gpx_style/0/2">
        <color>0000FF</color>
        <width>4</width>
      </line>
    </extensions>
    <trkseg>
      <trkpt lat="46.31013" lon="6.78598">
        <ele>1196.78</ele>
        <time>2025-03-27T08:26:39Z</time>
      </trkpt>
      <trkpt lat="46.31029" lon="6.78584">
        <ele>1215.7</ele>
        <time>2025-03-27T08:31:14Z</time>
      </trkpt>
      <trkpt lat="46.31045" lon="6.78597">
        <ele>1225.49</ele>
        <time>2025-03-27T08:31:49Z</time>
      </trkpt>
      <trkpt lat="46.31063" lon="6.78592">
        <ele>1225.09</ele>
        <time>2025-03-27T08:32:08Z</time>
      </trkpt>
      <trkpt lat="46.31082" lon="6.78594">
        <ele>1227.4</ele>
        <time>2025-03-27T08:33:52Z</time>
      </trkpt>
      <trkpt lat="46.311" lon="6.786">
        <ele>1233.79</ele>
        <time>2025-03-27T08:34:22Z</time>
      </trkpt>
      <trkpt lat="46.31117" lon="6.78611">
        <ele>1232.71</ele>
        <time>2025-03-27T08:35:09Z</time>
      </trkpt>
      <trkpt lat="46.31134" lon="6.78603">
        <ele>1230.49</ele>
        <time>2025-03-27T08:36:00Z</time>
      </trkpt>
      <trkpt lat="46.31142" lon="6.78577">
        <ele>1241.1</ele>
        <time>2025-03-27T08:38:15Z</time>
      </trkpt>
      <trkpt lat="46.3116" lon="6.78573">
        <ele>1241.79</ele>
        <time>2025-03-27T08:38:59Z</time>
      </trkpt>
      <trkpt lat="46.31176" lon="6.78559">
        <ele>1249.7</ele>
        <time>2025-03-27T08:39:24Z</time>
      </trkpt>
      <trkpt lat="46.31188" lon="6.7858">
        <ele>1257.67</ele>
        <time>2025-03-27T08:41:15Z</time>
      </trkpt>
      <trkpt lat="46.31207" lon="6.78584">
        <ele>1263.79</ele>
        <time>2025-03-27T08:41:49Z</time>
      </trkpt>
      <trkpt lat="46.31225" lon="6.78585">
        <ele>1265.72</ele>
        <time>2025-03-27T08:42:12Z</time>
      </trkpt>
      <trkpt lat="46.31244" lon="6.78588">
        <ele>1268.81</ele>
        <time>2025-03-27T08:42:43Z</time>
      </trkpt>
      <trkpt lat="46.31262" lon="6.78595">
        <ele>1272.79</ele>
        <time>2025-03-27T08:43:20Z</time>
      </trkpt>
      <trkpt lat="46.3128" lon="6.78601">
        <ele>1273.81</ele>
        <time>2025-03-27T08:43:44Z</time>
      </trkpt>
      <trkpt lat="46.31298" lon="6.78598">
        <ele>1269.79</ele>
        <time>2025-03-27T08:44:30Z</time>
      </trkpt>
      <trkpt lat="46.31316" lon="6.78598">
        <ele>1265.85</ele>
        <time>2025-03-27T08:44:58Z</time>
      </trkpt>
      <trkpt lat="46.31335" lon="6.78597">
        <ele>1269.49</ele>
        <time>2025-03-27T08:45:26Z</time>
      </trkpt>
      <trkpt lat="46.31353" lon="6.78593">
        <ele>1270</ele>
        <time>2025-03-27T08:45:49Z</time>
      </trkpt>
      <trkpt lat="46.31371" lon="6.78596">
        <ele>1274.78</ele>
        <time>2025-03-27T08:46:22Z</time>
      </trkpt>
      <trkpt lat="46.31388" lon="6.78604">
        <ele>1289.79</ele>
        <time>2025-03-27T08:47:03Z</time>
      </trkpt>
      <trkpt lat="46.31406" lon="6.78604">
        <ele>1293.76</ele>
        <time>2025-03-27T08:47:39Z</time>
      </trkpt>
      <trkpt lat="46.31425" lon="6.78608">
        <ele>1299.78</ele>
        <time>2025-03-27T08:48:29Z</time>
      </trkpt>
      <trkpt lat="46.31443" lon="6.78615">
        <ele>1308.7</ele>
        <time>2025-03-27T08:49:05Z</time>
      </trkpt>
      <trkpt lat="46.3146" lon="6.78626">
        <ele>1316.76</ele>
        <time>2025-03-27T08:49:43Z</time>
      </trkpt>
      <trkpt lat="46.31478" lon="6.78624">
        <ele>1318.79</ele>
        <time>2025-03-27T08:50:18Z</time>
      </trkpt>
      <trkpt lat="46.31496" lon="6.78629">
        <ele>1316.09</ele>
        <time>2025-03-27T08:50:51Z</time>
      </trkpt>
      <trkpt lat="46.31512" lon="6.78642">
        <ele>1313.97</ele>
        <time>2025-03-27T08:51:24Z</time>
      </trkpt>
      <trkpt lat="46.31529" lon="6.78651">
        <ele>1314.79</ele>
        <time>2025-03-27T08:52:07Z</time>
      </trkpt>
      <trkpt lat="46.31547" lon="6.78666">
        <ele>1320.49</ele>
        <time>2025-03-27T08:52:43Z</time>
      </trkpt>
      <trkpt lat="46.31562" lon="6.78681">
        <ele>1327.46</ele>
        <time>2025-03-27T08:53:17Z</time>
      </trkpt>
      <trkpt lat="46.31579" lon="6.7869">
        <ele>1334.77</ele>
        <time>2025-03-27T08:53:51Z</time>
      </trkpt>
      <trkpt lat="46.31597" lon="6.78696">
        <ele>1334.8</ele>
        <time>2025-03-27T08:54:21Z</time>
      </trkpt>
      <trkpt lat="46.31611" lon="6.78714">
        <ele>1344.79</ele>
        <time>2025-03-27T08:55:05Z</time>
      </trkpt>
      <trkpt lat="46.31627" lon="6.78729">
        <ele>1353.79</ele>
        <time>2025-03-27T08:55:41Z</time>
      </trkpt>
      <trkpt lat="46.31643" lon="6.78739">
        <ele>1362.7</ele>
        <time>2025-03-27T08:56:19Z</time>
      </trkpt>
      <trkpt lat="46.31662" lon="6.78744">
        <ele>1376.79</ele>
        <time>2025-03-27T08:58:58Z</time>
      </trkpt>
      <trkpt lat="46.31674" lon="6.78724">
        <ele>1383.68</ele>
        <time>2025-03-27T08:59:49Z</time>
      </trkpt>
      <trkpt lat="46.31682" lon="6.787">
        <ele>1388.49</ele>
        <time>2025-03-27T09:00:47Z</time>
      </trkpt>
      <trkpt lat="46.31679" lon="6.78674">
        <ele>1388</ele>
        <time>2025-03-27T09:02:55Z</time>
      </trkpt>
      <trkpt lat="46.31665" lon="6.78657">
        <ele>1390.61</ele>
        <time>2025-03-27T09:03:54Z</time>
      </trkpt>
      <trkpt lat="46.31653" lon="6.78637">
        <ele>1395.79</ele>
        <time>2025-03-27T09:04:55Z</time>
      </trkpt>
      <trkpt lat="46.31663" lon="6.78616">
        <ele>1405.78</ele>
        <time>2025-03-27T09:06:34Z</time>
      </trkpt>
      <trkpt lat="46.31675" lon="6.78596">
        <ele>1411.78</ele>
        <time>2025-03-27T09:07:21Z</time>
      </trkpt>
      <trkpt lat="46.31682" lon="6.78571">
        <ele>1419.75</ele>
        <time>2025-03-27T09:08:10Z</time>
      </trkpt>
      <trkpt lat="46.31679" lon="6.78545">
        <ele>1426.49</ele>
        <time>2025-03-27T09:08:49Z</time>
      </trkpt>
      <trkpt lat="46.31663" lon="6.78533">
        <ele>1429.78</ele>
        <time>2025-03-27T09:09:20Z</time>
      </trkpt>
      <trkpt lat="46.31677" lon="6.78514">
        <ele>1429.88</ele>
        <time>2025-03-27T09:10:53Z</time>
      </trkpt>
      <trkpt lat="46.31695" lon="6.78513">
        <ele>1432.56</ele>
        <time>2025-03-27T09:11:34Z</time>
      </trkpt>
      <trkpt lat="46.31712" lon="6.78523">
        <ele>1436.85</ele>
        <time>2025-03-27T09:11:58Z</time>
      </trkpt>
      <trkpt lat="46.31726" lon="6.78541">
        <ele>1440.49</ele>
        <time>2025-03-27T09:12:22Z</time>
      </trkpt>
      <trkpt lat="46.31736" lon="6.78562">
        <ele>1445.46</ele>
        <time>2025-03-27T09:12:45Z</time>
      </trkpt>
      <trkpt lat="46.31741" lon="6.78587">
        <ele>1453.7</ele>
        <time>2025-03-27T09:13:24Z</time>
      </trkpt>
      <trkpt lat="46.31758" lon="6.78598">
        <ele>1452.81</ele>
        <time>2025-03-27T09:14:02Z</time>
      </trkpt>
      <trkpt lat="46.31777" lon="6.78601">
        <ele>1453.48</ele>
        <time>2025-03-27T09:14:36Z</time>
      </trkpt>
      <trkpt lat="46.31795" lon="6.78603">
        <ele>1459.08</ele>
        <time>2025-03-27T09:15:09Z</time>
      </trkpt>
      <trkpt lat="46.31813" lon="6.78606">
        <ele>1458.79</ele>
        <time>2025-03-27T09:15:39Z</time>
      </trkpt>
      <trkpt lat="46.31829" lon="6.78618">
        <ele>1466.69</ele>
        <time>2025-03-27T09:16:11Z</time>
      </trkpt>
      <trkpt lat="46.31834" lon="6.78644">
        <ele>1475.54</ele>
        <time>2025-03-27T09:16:34Z</time>
      </trkpt>
      <trkpt lat="46.31833" lon="6.7867">
        <ele>1478.81</ele>
        <time>2025-03-27T09:17:02Z</time>
      </trkpt>
      <trkpt lat="46.31822" lon="6.78692">
        <ele>1478</ele>
        <time>2025-03-27T09:17:26Z</time>
      </trkpt>
      <trkpt lat="46.31809" lon="6.78711">
        <ele>1480.79</ele>
        <time>2025-03-27T09:17:49Z</time>
      </trkpt>
      <trkpt lat="46.31798" lon="6.78732">
        <ele>1483.81</ele>
        <time>2025-03-27T09:18:13Z</time>
      </trkpt>
      <trkpt lat="46.31801" lon="6.78758">
        <ele>1487.76</ele>
        <time>2025-03-27T09:18:33Z</time>
      </trkpt>
      <trkpt lat="46.3182" lon="6.7877">
        <ele>1487.16</ele>
        <time>2025-03-27T09:18:51Z</time>
      </trkpt>
      <trkpt lat="46.31838" lon="6.78767">
        <ele>1483.09</ele>
        <time>2025-03-27T09:19:13Z</time>
      </trkpt>
      <trkpt lat="46.31856" lon="6.78772">
        <ele>1483.7</ele>
        <time>2025-03-27T09:19:42Z</time>
      </trkpt>
      <trkpt lat="46.31868" lon="6.78792">
        <ele>1487.79</ele>
        <time>2025-03-27T09:20:07Z</time>
      </trkpt>
      <trkpt lat="46.31866" lon="6.78818">
        <ele>1495.4</ele>
        <time>2025-03-27T09:20:30Z</time>
      </trkpt>
      <trkpt lat="46.31864" lon="6.78844">
        <ele>1499.47</ele>
        <time>2025-03-27T09:20:57Z</time>
      </trkpt>
      <trkpt lat="46.3187" lon="6.78868">
        <ele>1504.7</ele>
        <time>2025-03-27T09:21:27Z</time>
      </trkpt>
      <trkpt lat="46.31881" lon="6.7889">
        <ele>1510.58</ele>
        <time>2025-03-27T09:22:00Z</time>
      </trkpt>
      <trkpt lat="46.31892" lon="6.78911">
        <ele>1515.79</ele>
        <time>2025-03-27T09:22:31Z</time>
      </trkpt>
      <trkpt lat="46.31903" lon="6.78933">
        <ele>1515.43</ele>
        <time>2025-03-27T09:23:02Z</time>
      </trkpt>
      <trkpt lat="46.31912" lon="6.78955">
        <ele>1519.57</ele>
        <time>2025-03-27T09:23:30Z</time>
      </trkpt>
      <trkpt lat="46.3192" lon="6.78979">
        <ele>1525.49</ele>
        <time>2025-03-27T09:23:59Z</time>
      </trkpt>
      <trkpt lat="46.31926" lon="6.79004">
        <ele>1528.49</ele>
        <time>2025-03-27T09:24:29Z</time>
      </trkpt>
      <trkpt lat="46.31932" lon="6.79029">
        <ele>1532.46</ele>
        <time>2025-03-27T09:24:57Z</time>
      </trkpt>
      <trkpt lat="46.31939" lon="6.79055">
        <ele>1533.7</ele>
        <time>2025-03-27T09:25:26Z</time>
      </trkpt>
      <trkpt lat="46.31945" lon="6.79079">
        <ele>1540.57</ele>
        <time>2025-03-27T09:25:55Z</time>
      </trkpt>
      <trkpt lat="46.31949" lon="6.79106">
        <ele>1543.06</ele>
        <time>2025-03-27T09:26:29Z</time>
      </trkpt>
      <trkpt lat="46.31958" lon="6.79128">
        <ele>1547.06</ele>
        <time>2025-03-27T09:26:58Z</time>
      </trkpt>
      <trkpt lat="46.31969" lon="6.7915">
        <ele>1555.79</ele>
        <time>2025-03-27T09:27:43Z</time>
      </trkpt>
      <trkpt lat="46.31982" lon="6.79168">
        <ele>1558.12</ele>
        <time>2025-03-27T09:28:17Z</time>
      </trkpt>
      <trkpt lat="46.31994" lon="6.79189">
        <ele>1565.11</ele>
        <time>2025-03-27T09:28:53Z</time>
      </trkpt>
      <trkpt lat="46.32006" lon="6.79208">
        <ele>1572.76</ele>
        <time>2025-03-27T09:29:30Z</time>
      </trkpt>
      <trkpt lat="46.32018" lon="6.79227">
        <ele>1576.7</ele>
        <time>2025-03-27T09:30:02Z</time>
      </trkpt>
      <trkpt lat="46.3203" lon="6.7925">
        <ele>1578.81</ele>
        <time>2025-03-27T09:30:41Z</time>
      </trkpt>
      <trkpt lat="46.32041" lon="6.7927">
        <ele>1580.76</ele>
        <time>2025-03-27T09:31:30Z</time>
      </trkpt>
      <trkpt lat="46.32052" lon="6.79292">
        <ele>1586.88</ele>
        <time>2025-03-27T09:32:01Z</time>
      </trkpt>
      <trkpt lat="46.32066" lon="6.79308">
        <ele>1593.75</ele>
        <time>2025-03-27T09:32:32Z</time>
      </trkpt>
      <trkpt lat="46.32084" lon="6.79312">
        <ele>1594.08</ele>
        <time>2025-03-27T09:36:28Z</time>
      </trkpt>
      <trkpt lat="46.32102" lon="6.79317">
        <ele>1594</ele>
        <time>2025-03-27T09:36:55Z</time>
      </trkpt>
      <trkpt lat="46.3212" lon="6.79319">
        <ele>1595.79</ele>
        <time>2025-03-27T09:37:22Z</time>
      </trkpt>
      <trkpt lat="46.32136" lon="6.79333">
        <ele>1603.52</ele>
        <time>2025-03-27T09:37:50Z</time>
      </trkpt>
      <trkpt lat="46.32149" lon="6.79353">
        <ele>1609.16</ele>
        <time>2025-03-27T09:38:16Z</time>
      </trkpt>
      <trkpt lat="46.32163" lon="6.79371">
        <ele>1611.18</ele>
        <time>2025-03-27T09:38:43Z</time>
      </trkpt>
      <trkpt lat="46.32176" lon="6.79388">
        <ele>1613.81</ele>
        <time>2025-03-27T09:39:08Z</time>
      </trkpt>
      <trkpt lat="46.32172" lon="6.79413">
        <ele>1619.79</ele>
        <time>2025-03-27T09:39:48Z</time>
      </trkpt>
      <trkpt lat="46.32165" lon="6.79437">
        <ele>1621.8</ele>
        <time>2025-03-27T09:40:19Z</time>
      </trkpt>
      <trkpt lat="46.32162" lon="6.79464">
        <ele>1626.78</ele>
        <time>2025-03-27T09:40:44Z</time>
      </trkpt>
      <trkpt lat="46.32158" lon="6.79489">
        <ele>1626.09</ele>
        <time>2025-03-27T09:41:12Z</time>
      </trkpt>
      <trkpt lat="46.32171" lon="6.79508">
        <ele>1635.69</ele>
        <time>2025-03-27T09:42:17Z</time>
      </trkpt>
      <trkpt lat="46.32189" lon="6.79507">
        <ele>1636.59</ele>
        <time>2025-03-27T09:42:51Z</time>
      </trkpt>
      <trkpt lat="46.32207" lon="6.79498">
        <ele>1643.75</ele>
        <time>2025-03-27T09:43:30Z</time>
      </trkpt>
      <trkpt lat="46.32223" lon="6.79485">
        <ele>1648.49</ele>
        <time>2025-03-27T09:44:09Z</time>
      </trkpt>
      <trkpt lat="46.32238" lon="6.79467">
        <ele>1654.49</ele>
        <time>2025-03-27T09:44:46Z</time>
      </trkpt>
      <trkpt lat="46.32249" lon="6.79448">
        <ele>1659.8</ele>
        <time>2025-03-27T09:45:19Z</time>
      </trkpt>
      <trkpt lat="46.3226" lon="6.79426">
        <ele>1661.79</ele>
        <time>2025-03-27T09:45:51Z</time>
      </trkpt>
      <trkpt lat="46.32266" lon="6.79401">
        <ele>1670.59</ele>
        <time>2025-03-27T09:46:22Z</time>
      </trkpt>
      <trkpt lat="46.32281" lon="6.79386">
        <ele>1673.78</ele>
        <time>2025-03-27T09:46:44Z</time>
      </trkpt>
      <trkpt lat="46.32296" lon="6.79368">
        <ele>1674.79</ele>
        <time>2025-03-27T09:47:03Z</time>
      </trkpt>
      <trkpt lat="46.32304" lon="6.79345">
        <ele>1675</ele>
        <time>2025-03-27T09:47:23Z</time>
      </trkpt>
      <trkpt lat="46.32313" lon="6.79322">
        <ele>1679.09</ele>
        <time>2025-03-27T09:53:13Z</time>
      </trkpt>
      <trkpt lat="46.32331" lon="6.79311">
        <ele>1682.79</ele>
        <time>2025-03-27T09:53:56Z</time>
      </trkpt>
      <trkpt lat="46.32339" lon="6.79335">
        <ele>1686.79</ele>
        <time>2025-03-27T09:54:47Z</time>
      </trkpt>
      <trkpt lat="46.32335" lon="6.79361">
        <ele>1687.48</ele>
        <time>2025-03-27T09:55:14Z</time>
      </trkpt>
      <trkpt lat="46.32329" lon="6.79386">
        <ele>1688.09</ele>
        <time>2025-03-27T09:55:41Z</time>
      </trkpt>
      <trkpt lat="46.32317" lon="6.79405">
        <ele>1696.7</ele>
        <time>2025-03-27T09:56:04Z</time>
      </trkpt>
      <trkpt lat="46.32308" lon="6.79428">
        <ele>1698.78</ele>
        <time>2025-03-27T09:56:26Z</time>
      </trkpt>
      <trkpt lat="46.32301" lon="6.79453">
        <ele>1696.88</ele>
        <time>2025-03-27T09:56:50Z</time>
      </trkpt>
      <trkpt lat="46.32299" lon="6.79479">
        <ele>1694.76</ele>
        <time>2025-03-27T09:57:16Z</time>
      </trkpt>
      <trkpt lat="46.32291" lon="6.79503">
        <ele>1697.09</ele>
        <time>2025-03-27T09:57:40Z</time>
      </trkpt>
      <trkpt lat="46.32283" lon="6.79527">
        <ele>1699.81</ele>
        <time>2025-03-27T09:58:01Z</time>
      </trkpt>
      <trkpt lat="46.32282" lon="6.79554">
        <ele>1701.09</ele>
        <time>2025-03-27T09:58:27Z</time>
      </trkpt>
      <trkpt lat="46.32284" lon="6.7958">
        <ele>1703.11</ele>
        <time>2025-03-27T09:59:03Z</time>
      </trkpt>
      <trkpt lat="46.32298" lon="6.796">
        <ele>1708.49</ele>
        <time>2025-03-27T09:59:55Z</time>
      </trkpt>
      <trkpt lat="46.32305" lon="6.79624">
        <ele>1723.78</ele>
        <time>2025-03-27T10:00:42Z</time>
      </trkpt>
      <trkpt lat="46.32314" lon="6.79648">
        <ele>1727.47</ele>
        <time>2025-03-27T10:01:32Z</time>
      </trkpt>
      <trkpt lat="46.32322" lon="6.79671">
        <ele>1734.85</ele>
        <time>2025-03-27T10:02:24Z</time>
      </trkpt>
      <trkpt lat="46.32327" lon="6.79697">
        <ele>1743.01</ele>
        <time>2025-03-27T10:03:22Z</time>
      </trkpt>
      <trkpt lat="46.32345" lon="6.79699">
        <ele>1751.79</ele>
        <time>2025-03-27T10:04:30Z</time>
      </trkpt>
      <trkpt lat="46.32348" lon="6.79724">
        <ele>1760.48</ele>
        <time>2025-03-27T10:05:20Z</time>
      </trkpt>
      <trkpt lat="46.32361" lon="6.79705">
        <ele>1771.7</ele>
        <time>2025-03-27T10:06:10Z</time>
      </trkpt>
      <trkpt lat="46.3237" lon="6.79728">
        <ele>1781.79</ele>
        <time>2025-03-27T10:07:05Z</time>
      </trkpt>
      <trkpt lat="46.32372" lon="6.79755">
        <ele>1789.55</ele>
        <time>2025-03-27T10:07:57Z</time>
      </trkpt>
      <trkpt lat="46.32369" lon="6.79782">
        <ele>1797.79</ele>
        <time>2025-03-27T10:08:44Z</time>
      </trkpt>
      <trkpt lat="46.32367" lon="6.79808">
        <ele>1806.7</ele>
        <time>2025-03-27T10:13:40Z</time>
      </trkpt>
      <trkpt lat="46.3237" lon="6.79834">
        <ele>1817.78</ele>
        <time>2025-03-27T10:15:00Z</time>
      </trkpt>
      <trkpt lat="46.32381" lon="6.79855">
        <ele>1822.7</ele>
        <time>2025-03-27T10:16:58Z</time>
      </trkpt>
      <trkpt lat="46.32398" lon="6.79845">
        <ele>1817.49</ele>
        <time>2025-03-27T10:18:48Z</time>
      </trkpt>
      <trkpt lat="46.32417" lon="6.79846">
        <ele>1827.69</ele>
        <time>2025-03-27T10:19:31Z</time>
      </trkpt>
      <trkpt lat="46.32434" lon="6.79836">
        <ele>1832.51</ele>
        <time>2025-03-27T10:20:24Z</time>
      </trkpt>
      <trkpt lat="46.32446" lon="6.79859">
        <ele>1848.95</ele>
        <time>2025-03-27T10:20:49Z</time>
      </trkpt>
      <trkpt lat="46.32442" lon="6.79829">
        <ele>1845.34</ele>
        <time>2025-03-27T10:20:50Z</time>
      </trkpt>
      <trkpt lat="46.32456" lon="6.79812">
        <ele>1842.79</ele>
        <time>2025-03-27T10:21:24Z</time>
      </trkpt>
      <trkpt lat="46.3247" lon="6.79794">
        <ele>1847.78</ele>
        <time>2025-03-27T10:22:08Z</time>
      </trkpt>
      <trkpt lat="46.32481" lon="6.79773">
        <ele>1853.79</ele>
        <time>2025-03-27T10:23:03Z</time>
      </trkpt>
      <trkpt lat="46.32495" lon="6.79756">
        <ele>1866.69</ele>
        <time>2025-03-27T10:24:04Z</time>
      </trkpt>
      <trkpt lat="46.32514" lon="6.79744">
        <ele>1876.05</ele>
        <time>2025-03-27T10:25:21Z</time>
      </trkpt>
      <trkpt lat="46.32532" lon="6.79746">
        <ele>1889.78</ele>
        <time>2025-03-27T10:27:20Z</time>
      </trkpt>
      <trkpt lat="46.32523" lon="6.7977">
        <ele>1903.39</ele>
        <time>2025-03-27T10:27:53Z</time>
      </trkpt>
      <trkpt lat="46.32541" lon="6.79772">
        <ele>1906.79</ele>
        <time>2025-03-27T10:28:30Z</time>
      </trkpt>
      <trkpt lat="46.32554" lon="6.79792">
        <ele>1907.48</ele>
        <time>2025-03-27T10:29:28Z</time>
      </trkpt>
      <trkpt lat="46.32568" lon="6.79775">
        <ele>1914.79</ele>
        <time>2025-03-27T10:30:41Z</time>
      </trkpt>
      <trkpt lat="46.32577" lon="6.79751">
        <ele>1920.78</ele>
        <time>2025-03-27T10:31:32Z</time>
      </trkpt>
      <trkpt lat="46.32586" lon="6.79728">
        <ele>1929.87</ele>
        <time>2025-03-27T10:32:14Z</time>
      </trkpt>
      <trkpt lat="46.32592" lon="6.79702">
        <ele>1933.76</ele>
        <time>2025-03-27T10:32:57Z</time>
      </trkpt>
      <trkpt lat="46.32609" lon="6.7971">
        <ele>1948.78</ele>
        <time>2025-03-27T10:34:32Z</time>
      </trkpt>
      <trkpt lat="46.32627" lon="6.79715">
        <ele>1960.79</ele>
        <time>2025-03-27T10:36:00Z</time>
      </trkpt>
      <trkpt lat="46.32637" lon="6.79737">
        <ele>1966.11</ele>
        <time>2025-03-27T10:36:48Z</time>
      </trkpt>
      <trkpt lat="46.32649" lon="6.79758">
        <ele>1973.49</ele>
        <time>2025-03-27T10:37:37Z</time>
      </trkpt>
      <trkpt lat="46.3266" lon="6.79778">
        <ele>1978.78</ele>
        <time>2025-03-27T10:38:20Z</time>
      </trkpt>
      <trkpt lat="46.32668" lon="6.79753">
        <ele>1981.7</ele>
        <time>2025-03-27T10:39:12Z</time>
      </trkpt>
      <trkpt lat="46.32674" lon="6.79729">
        <ele>1989.79</ele>
        <time>2025-03-27T10:39:57Z</time>
      </trkpt>
      <trkpt lat="46.3268" lon="6.79703">
        <ele>1994.76</ele>
        <time>2025-03-27T10:40:34Z</time>
      </trkpt>
      <trkpt lat="46.32689" lon="6.79681">
        <ele>1999.79</ele>
        <time>2025-03-27T10:41:15Z</time>
      </trkpt>
      <trkpt lat="46.32706" lon="6.79691">
        <ele>2009.78</ele>
        <time>2025-03-27T10:42:54Z</time>
      </trkpt>
      <trkpt lat="46.32716" lon="6.79713">
        <ele>2015.79</ele>
        <time>2025-03-27T10:43:35Z</time>
      </trkpt>
      <trkpt lat="46.32732" lon="6.79701">
        <ele>2021.79</ele>
        <time>2025-03-27T10:44:37Z</time>
      </trkpt>
      <trkpt lat="46.32748" lon="6.79713">
        <ele>2035.46</ele>
        <time>2025-03-27T10:45:36Z</time>
      </trkpt>
      <trkpt lat="46.32757" lon="6.79736">
        <ele>2041.49</ele>
        <time>2025-03-27T10:46:12Z</time>
      </trkpt>
      <trkpt lat="46.32769" lon="6.79757">
        <ele>2045.79</ele>
        <time>2025-03-27T10:46:46Z</time>
      </trkpt>
      <trkpt lat="46.32777" lon="6.79781">
        <ele>2044.76</ele>
        <time>2025-03-27T10:47:55Z</time>
      </trkpt>
      <trkpt lat="46.32792" lon="6.79764">
        <ele>2053.79</ele>
        <time>2025-03-27T10:48:35Z</time>
      </trkpt>
      <trkpt lat="46.32798" lon="6.79739">
        <ele>2057.79</ele>
        <time>2025-03-27T10:49:14Z</time>
      </trkpt>
      <trkpt lat="46.32816" lon="6.79745">
        <ele>2061.79</ele>
        <time>2025-03-27T10:50:05Z</time>
      </trkpt>
      <trkpt lat="46.32823" lon="6.79721">
        <ele>2061.77</ele>
        <time>2025-03-27T10:50:41Z</time>
      </trkpt>
      <trkpt lat="46.32805" lon="6.79718">
        <ele>2059.79</ele>
        <time>2025-03-27T10:51:26Z</time>
      </trkpt>
      <trkpt lat="46.32817" lon="6.79743">
        <ele>2065.49</ele>
        <time>2025-03-27T10:52:54Z</time>
      </trkpt>
      <trkpt lat="46.3284" lon="6.79794">
        <ele>2067.9</ele>
        <time>2025-03-27T11:46:31Z</time>
      </trkpt>
      <trkpt lat="46.32826" lon="6.79776">
        <ele>2070.81</ele>
        <time>2025-03-27T11:48:33Z</time>
      </trkpt>
      <trkpt lat="46.32811" lon="6.79762">
        <ele>2060.79</ele>
        <time>2025-03-27T11:49:12Z</time>
      </trkpt>
      <trkpt lat="46.3281" lon="6.79735">
        <ele>2062.79</ele>
        <time>2025-03-27T11:53:58Z</time>
      </trkpt>
      <trkpt lat="46.32824" lon="6.79758">
        <ele>2074.18</ele>
        <time>2025-03-27T11:54:01Z</time>
      </trkpt>
      <trkpt lat="46.3281" lon="6.79742">
        <ele>2071.18</ele>
        <time>2025-03-27T11:54:53Z</time>
      </trkpt>
      <trkpt lat="46.32828" lon="6.79739">
        <ele>2045.23</ele>
        <time>2025-03-27T12:01:19Z</time>
      </trkpt>
      <trkpt lat="46.3281" lon="6.79742">
        <ele>2058.82</ele>
        <time>2025-03-27T12:06:07Z</time>
      </trkpt>
      <trkpt lat="46.32797" lon="6.79759">
        <ele>2055.81</ele>
        <time>2025-03-27T12:28:59Z</time>
      </trkpt>
      <trkpt lat="46.32787" lon="6.79781">
        <ele>2050.79</ele>
        <time>2025-03-27T12:29:26Z</time>
      </trkpt>
      <trkpt lat="46.32773" lon="6.79765">
        <ele>2039.78</ele>
        <time>2025-03-27T12:30:17Z</time>
      </trkpt>
      <trkpt lat="46.3276" lon="6.79745">
        <ele>2035.79</ele>
        <time>2025-03-27T12:30:39Z</time>
      </trkpt>
      <trkpt lat="46.3275" lon="6.79724">
        <ele>2028.82</ele>
        <time>2025-03-27T12:30:58Z</time>
      </trkpt>
      <trkpt lat="46.32738" lon="6.79704">
        <ele>2025.09</ele>
        <time>2025-03-27T12:31:23Z</time>
      </trkpt>
      <trkpt lat="46.32724" lon="6.79721">
        <ele>2020.8</ele>
        <time>2025-03-27T12:31:47Z</time>
      </trkpt>
      <trkpt lat="46.3271" lon="6.79704">
        <ele>2009.88</ele>
        <time>2025-03-27T12:32:26Z</time>
      </trkpt>
      <trkpt lat="46.327" lon="6.79681">
        <ele>2005.88</ele>
        <time>2025-03-27T12:32:57Z</time>
      </trkpt>
      <trkpt lat="46.32686" lon="6.79699">
        <ele>1999.49</ele>
        <time>2025-03-27T12:36:53Z</time>
      </trkpt>
      <trkpt lat="46.32678" lon="6.79723">
        <ele>1995.1</ele>
        <time>2025-03-27T12:37:18Z</time>
      </trkpt>
      <trkpt lat="46.32672" lon="6.79748">
        <ele>1986.82</ele>
        <time>2025-03-27T12:37:44Z</time>
      </trkpt>
      <trkpt lat="46.32663" lon="6.79771">
        <ele>1978.89</ele>
        <time>2025-03-27T12:38:18Z</time>
      </trkpt>
      <trkpt lat="46.32646" lon="6.79759">
        <ele>1966.8</ele>
        <time>2025-03-27T12:39:06Z</time>
      </trkpt>
      <trkpt lat="46.32636" lon="6.79737">
        <ele>1960.8</ele>
        <time>2025-03-27T12:39:28Z</time>
      </trkpt>
      <trkpt lat="46.32626" lon="6.79715">
        <ele>1954.1</ele>
        <time>2025-03-27T12:39:51Z</time>
      </trkpt>
      <trkpt lat="46.32609" lon="6.79706">
        <ele>1943.09</ele>
        <time>2025-03-27T12:41:04Z</time>
      </trkpt>
      <trkpt lat="46.32591" lon="6.79713">
        <ele>1933.79</ele>
        <time>2025-03-27T12:43:28Z</time>
      </trkpt>
      <trkpt lat="46.32584" lon="6.79737">
        <ele>1923.91</ele>
        <time>2025-03-27T12:44:03Z</time>
      </trkpt>
      <trkpt lat="46.32574" lon="6.7976">
        <ele>1919.88</ele>
        <time>2025-03-27T12:44:37Z</time>
      </trkpt>
      <trkpt lat="46.32568" lon="6.79784">
        <ele>1916.1</ele>
        <time>2025-03-27T12:45:06Z</time>
      </trkpt>
      <trkpt lat="46.3255" lon="6.79778">
        <ele>1890.5</ele>
        <time>2025-03-27T12:46:09Z</time>
      </trkpt>
      <trkpt lat="46.3254" lon="6.79756">
        <ele>1884</ele>
        <time>2025-03-27T12:46:41Z</time>
      </trkpt>
      <trkpt lat="46.32522" lon="6.79757">
        <ele>1882.09</ele>
        <time>2025-03-27T12:47:35Z</time>
      </trkpt>
      <trkpt lat="46.32504" lon="6.79756">
        <ele>1871.79</ele>
        <time>2025-03-27T12:48:30Z</time>
      </trkpt>
      <trkpt lat="46.32486" lon="6.79765">
        <ele>1860.8</ele>
        <time>2025-03-27T12:49:21Z</time>
      </trkpt>
      <trkpt lat="46.32475" lon="6.79786">
        <ele>1849.83</ele>
        <time>2025-03-27T12:49:56Z</time>
      </trkpt>
      <trkpt lat="46.32463" lon="6.79807">
        <ele>1847.79</ele>
        <time>2025-03-27T12:50:27Z</time>
      </trkpt>
      <trkpt lat="46.3245" lon="6.79824">
        <ele>1839.88</ele>
        <time>2025-03-27T12:50:52Z</time>
      </trkpt>
      <trkpt lat="46.32436" lon="6.7984">
        <ele>1833.79</ele>
        <time>2025-03-27T12:51:17Z</time>
      </trkpt>
      <trkpt lat="46.3242" lon="6.79855">
        <ele>1824.82</ele>
        <time>2025-03-27T12:51:54Z</time>
      </trkpt>
      <trkpt lat="46.32402" lon="6.79849">
        <ele>1814.82</ele>
        <time>2025-03-27T12:52:34Z</time>
      </trkpt>
      <trkpt lat="46.32382" lon="6.7984">
        <ele>1811.48</ele>
        <time>2025-03-27T12:53:16Z</time>
      </trkpt>
      <trkpt lat="46.32372" lon="6.79861">
        <ele>1812.81</ele>
        <time>2025-03-27T12:53:35Z</time>
      </trkpt>
      <trkpt lat="46.32354" lon="6.79866">
        <ele>1813.78</ele>
        <time>2025-03-27T12:54:04Z</time>
      </trkpt>
      <trkpt lat="46.32337" lon="6.79855">
        <ele>1808.11</ele>
        <time>2025-03-27T12:54:35Z</time>
      </trkpt>
      <trkpt lat="46.32344" lon="6.79831">
        <ele>1796.79</ele>
        <time>2025-03-27T12:57:47Z</time>
      </trkpt>
      <trkpt lat="46.32357" lon="6.79812">
        <ele>1794.8</ele>
        <time>2025-03-27T12:58:36Z</time>
      </trkpt>
      <trkpt lat="46.32368" lon="6.79789">
        <ele>1791.09</ele>
        <time>2025-03-27T12:59:11Z</time>
      </trkpt>
      <trkpt lat="46.32372" lon="6.79763">
        <ele>1785.57</ele>
        <time>2025-03-27T12:59:43Z</time>
      </trkpt>
      <trkpt lat="46.32373" lon="6.79737">
        <ele>1779.79</ele>
        <time>2025-03-27T13:00:31Z</time>
      </trkpt>
      <trkpt lat="46.32362" lon="6.79714">
        <ele>1778.69</ele>
        <time>2025-03-27T13:01:19Z</time>
      </trkpt>
      <trkpt lat="46.32345" lon="6.79727">
        <ele>1760.59</ele>
        <time>2025-03-27T13:04:02Z</time>
      </trkpt>
      <trkpt lat="46.32341" lon="6.79701">
        <ele>1751.18</ele>
        <time>2025-03-27T13:04:58Z</time>
      </trkpt>
      <trkpt lat="46.32325" lon="6.79689">
        <ele>1741.75</ele>
        <time>2025-03-27T13:05:55Z</time>
      </trkpt>
      <trkpt lat="46.32322" lon="6.79663">
        <ele>1731.89</ele>
        <time>2025-03-27T13:06:31Z</time>
      </trkpt>
      <trkpt lat="46.32312" lon="6.79641">
        <ele>1723.79</ele>
        <time>2025-03-27T13:07:09Z</time>
      </trkpt>
      <trkpt lat="46.32305" lon="6.79617">
        <ele>1711.79</ele>
        <time>2025-03-27T13:07:41Z</time>
      </trkpt>
      <trkpt lat="46.32296" lon="6.79594">
        <ele>1707.85</ele>
        <time>2025-03-27T13:08:12Z</time>
      </trkpt>
      <trkpt lat="46.32285" lon="6.79572">
        <ele>1693.79</ele>
        <time>2025-03-27T13:08:49Z</time>
      </trkpt>
      <trkpt lat="46.32285" lon="6.79546">
        <ele>1686.76</ele>
        <time>2025-03-27T13:10:05Z</time>
      </trkpt>
      <trkpt lat="46.32287" lon="6.79519">
        <ele>1687.81</ele>
        <time>2025-03-27T13:10:27Z</time>
      </trkpt>
      <trkpt lat="46.32294" lon="6.79494">
        <ele>1689.78</ele>
        <time>2025-03-27T13:10:45Z</time>
      </trkpt>
      <trkpt lat="46.32301" lon="6.79469">
        <ele>1692.79</ele>
        <time>2025-03-27T13:15:37Z</time>
      </trkpt>
      <trkpt lat="46.32306" lon="6.79443">
        <ele>1686.39</ele>
        <time>2025-03-27T13:16:32Z</time>
      </trkpt>
      <trkpt lat="46.32312" lon="6.79418">
        <ele>1684.78</ele>
        <time>2025-03-27T13:18:52Z</time>
      </trkpt>
      <trkpt lat="46.32322" lon="6.79396">
        <ele>1682.79</ele>
        <time>2025-03-27T13:19:11Z</time>
      </trkpt>
      <trkpt lat="46.32332" lon="6.79374">
        <ele>1682.88</ele>
        <time>2025-03-27T13:19:54Z</time>
      </trkpt>
      <trkpt lat="46.32336" lon="6.79348">
        <ele>1686.09</ele>
        <time>2025-03-27T13:21:38Z</time>
      </trkpt>
      <trkpt lat="46.32337" lon="6.79321">
        <ele>1678.85</ele>
        <time>2025-03-27T13:22:09Z</time>
      </trkpt>
      <trkpt lat="46.32319" lon="6.79319">
        <ele>1670.8</ele>
        <time>2025-03-27T13:22:35Z</time>
      </trkpt>
      <trkpt lat="46.32309" lon="6.7934">
        <ele>1672.08</ele>
        <time>2025-03-27T13:24:32Z</time>
      </trkpt>
      <trkpt lat="46.32303" lon="6.79365">
        <ele>1669.01</ele>
        <time>2025-03-27T13:24:50Z</time>
      </trkpt>
      <trkpt lat="46.32287" lon="6.7938">
        <ele>1667.78</ele>
        <time>2025-03-27T13:25:06Z</time>
      </trkpt>
      <trkpt lat="46.32274" lon="6.79399">
        <ele>1664.71</ele>
        <time>2025-03-27T13:25:23Z</time>
      </trkpt>
      <trkpt lat="46.32261" lon="6.79418">
        <ele>1662.03</ele>
        <time>2025-03-27T13:25:42Z</time>
      </trkpt>
      <trkpt lat="46.32253" lon="6.79442">
        <ele>1657.81</ele>
        <time>2025-03-27T13:26:04Z</time>
      </trkpt>
      <trkpt lat="46.3224" lon="6.79462">
        <ele>1652.91</ele>
        <time>2025-03-27T13:26:25Z</time>
      </trkpt>
      <trkpt lat="46.32228" lon="6.79481">
        <ele>1649.8</ele>
        <time>2025-03-27T13:26:58Z</time>
      </trkpt>
      <trkpt lat="46.32212" lon="6.79497">
        <ele>1647.79</ele>
        <time>2025-03-27T13:27:20Z</time>
      </trkpt>
      <trkpt lat="46.32196" lon="6.79511">
        <ele>1647.79</ele>
        <time>2025-03-27T13:27:39Z</time>
      </trkpt>
      <trkpt lat="46.32178" lon="6.79507">
        <ele>1642.09</ele>
        <time>2025-03-27T13:28:14Z</time>
      </trkpt>
      <trkpt lat="46.3216" lon="6.7951">
        <ele>1638.79</ele>
        <time>2025-03-27T13:28:47Z</time>
      </trkpt>
      <trkpt lat="46.32163" lon="6.79481">
        <ele>1629.09</ele>
        <time>2025-03-27T13:29:38Z</time>
      </trkpt>
      <trkpt lat="46.32167" lon="6.79455">
        <ele>1627.77</ele>
        <time>2025-03-27T13:29:54Z</time>
      </trkpt>
      <trkpt lat="46.3217" lon="6.79428">
        <ele>1615.79</ele>
        <time>2025-03-27T13:30:44Z</time>
      </trkpt>
      <trkpt lat="46.32178" lon="6.79405">
        <ele>1613.89</ele>
        <time>2025-03-27T13:31:01Z</time>
      </trkpt>
      <trkpt lat="46.32177" lon="6.79378">
        <ele>1613.02</ele>
        <time>2025-03-27T13:31:17Z</time>
      </trkpt>
      <trkpt lat="46.32162" lon="6.79362">
        <ele>1608.79</ele>
        <time>2025-03-27T13:31:36Z</time>
      </trkpt>
      <trkpt lat="46.32147" lon="6.79345">
        <ele>1604.8</ele>
        <time>2025-03-27T13:31:54Z</time>
      </trkpt>
      <trkpt lat="46.32134" lon="6.79326">
        <ele>1600.79</ele>
        <time>2025-03-27T13:32:19Z</time>
      </trkpt>
      <trkpt lat="46.32116" lon="6.79319">
        <ele>1598.79</ele>
        <time>2025-03-27T13:32:35Z</time>
      </trkpt>
      <trkpt lat="46.32098" lon="6.79314">
        <ele>1598.79</ele>
        <time>2025-03-27T13:32:57Z</time>
      </trkpt>
      <trkpt lat="46.3208" lon="6.79311">
        <ele>1595.88</ele>
        <time>2025-03-27T13:33:12Z</time>
      </trkpt>
      <trkpt lat="46.32061" lon="6.79304">
        <ele>1587.89</ele>
        <time>2025-03-27T13:33:38Z</time>
      </trkpt>
      <trkpt lat="46.3205" lon="6.79283">
        <ele>1583.09</ele>
        <time>2025-03-27T13:34:01Z</time>
      </trkpt>
      <trkpt lat="46.32038" lon="6.79263">
        <ele>1580.88</ele>
        <time>2025-03-27T13:34:14Z</time>
      </trkpt>
      <trkpt lat="46.32027" lon="6.79242">
        <ele>1572.89</ele>
        <time>2025-03-27T13:35:18Z</time>
      </trkpt>
      <trkpt lat="46.32016" lon="6.79221">
        <ele>1566.79</ele>
        <time>2025-03-27T13:35:39Z</time>
      </trkpt>
      <trkpt lat="46.32004" lon="6.79202">
        <ele>1561.8</ele>
        <time>2025-03-27T13:36:01Z</time>
      </trkpt>
      <trkpt lat="46.31992" lon="6.7918">
        <ele>1556.82</ele>
        <time>2025-03-27T13:36:22Z</time>
      </trkpt>
      <trkpt lat="46.31978" lon="6.79162">
        <ele>1549.8</ele>
        <time>2025-03-27T13:36:49Z</time>
      </trkpt>
      <trkpt lat="46.31969" lon="6.79139">
        <ele>1542.89</ele>
        <time>2025-03-27T13:37:12Z</time>
      </trkpt>
      <trkpt lat="46.3196" lon="6.79116">
        <ele>1538.09</ele>
        <time>2025-03-27T13:37:36Z</time>
      </trkpt>
      <trkpt lat="46.3195" lon="6.79094">
        <ele>1531.58</ele>
        <time>2025-03-27T13:37:56Z</time>
      </trkpt>
      <trkpt lat="46.31941" lon="6.7907">
        <ele>1527.49</ele>
        <time>2025-03-27T13:38:20Z</time>
      </trkpt>
      <trkpt lat="46.31933" lon="6.79046">
        <ele>1523.88</ele>
        <time>2025-03-27T13:38:40Z</time>
      </trkpt>
      <trkpt lat="46.31928" lon="6.7902">
        <ele>1517.88</ele>
        <time>2025-03-27T13:38:59Z</time>
      </trkpt>
      <trkpt lat="46.31922" lon="6.78995">
        <ele>1512.85</ele>
        <time>2025-03-27T13:39:19Z</time>
      </trkpt>
      <trkpt lat="46.31916" lon="6.7897">
        <ele>1508.09</ele>
        <time>2025-03-27T13:39:41Z</time>
      </trkpt>
      <trkpt lat="46.31907" lon="6.78948">
        <ele>1505.79</ele>
        <time>2025-03-27T13:40:01Z</time>
      </trkpt>
      <trkpt lat="46.31898" lon="6.78925">
        <ele>1502.09</ele>
        <time>2025-03-27T13:40:19Z</time>
      </trkpt>
      <trkpt lat="46.31888" lon="6.78903">
        <ele>1500.82</ele>
        <time>2025-03-27T13:40:39Z</time>
      </trkpt>
      <trkpt lat="46.31879" lon="6.78879">
        <ele>1496.8</ele>
        <time>2025-03-27T13:41:00Z</time>
      </trkpt>
      <trkpt lat="46.31868" lon="6.78857">
        <ele>1491.79</ele>
        <time>2025-03-27T13:41:20Z</time>
      </trkpt>
      <trkpt lat="46.31864" lon="6.78832">
        <ele>1486.09</ele>
        <time>2025-03-27T13:41:46Z</time>
      </trkpt>
      <trkpt lat="46.31867" lon="6.78806">
        <ele>1481.82</ele>
        <time>2025-03-27T13:42:03Z</time>
      </trkpt>
      <trkpt lat="46.31867" lon="6.78779">
        <ele>1480.11</ele>
        <time>2025-03-27T13:42:20Z</time>
      </trkpt>
      <trkpt lat="46.3185" lon="6.78765">
        <ele>1477.79</ele>
        <time>2025-03-27T13:42:38Z</time>
      </trkpt>
      <trkpt lat="46.31832" lon="6.78759">
        <ele>1474.71</ele>
        <time>2025-03-27T13:42:59Z</time>
      </trkpt>
      <trkpt lat="46.31814" lon="6.78757">
        <ele>1473.79</ele>
        <time>2025-03-27T13:43:15Z</time>
      </trkpt>
      <trkpt lat="46.31798" lon="6.78744">
        <ele>1473.78</ele>
        <time>2025-03-27T13:43:33Z</time>
      </trkpt>
      <trkpt lat="46.31806" lon="6.78719">
        <ele>1476.76</ele>
        <time>2025-03-27T13:44:01Z</time>
      </trkpt>
      <trkpt lat="46.31819" lon="6.78699">
        <ele>1472.8</ele>
        <time>2025-03-27T13:44:16Z</time>
      </trkpt>
      <trkpt lat="46.31831" lon="6.78678">
        <ele>1468.8</ele>
        <time>2025-03-27T13:44:36Z</time>
      </trkpt>
      <trkpt lat="46.31836" lon="6.78652">
        <ele>1465.91</ele>
        <time>2025-03-27T13:44:54Z</time>
      </trkpt>
      <trkpt lat="46.31832" lon="6.78625">
        <ele>1463.8</ele>
        <time>2025-03-27T13:45:14Z</time>
      </trkpt>
      <trkpt lat="46.31818" lon="6.78609">
        <ele>1460.49</ele>
        <time>2025-03-27T13:45:48Z</time>
      </trkpt>
      <trkpt lat="46.318" lon="6.78601">
        <ele>1457.8</ele>
        <time>2025-03-27T13:46:16Z</time>
      </trkpt>
      <trkpt lat="46.31781" lon="6.786">
        <ele>1454.79</ele>
        <time>2025-03-27T13:46:38Z</time>
      </trkpt>
      <trkpt lat="46.31763" lon="6.78602">
        <ele>1455.5</ele>
        <time>2025-03-27T13:47:01Z</time>
      </trkpt>
      <trkpt lat="46.31745" lon="6.78598">
        <ele>1453.02</ele>
        <time>2025-03-27T13:47:23Z</time>
      </trkpt>
      <trkpt lat="46.31738" lon="6.78574">
        <ele>1448.27</ele>
        <time>2025-03-27T13:48:21Z</time>
      </trkpt>
      <trkpt lat="46.31728" lon="6.78551">
        <ele>1448.8</ele>
        <time>2025-03-27T13:51:29Z</time>
      </trkpt>
      <trkpt lat="46.31716" lon="6.78531">
        <ele>1447.09</ele>
        <time>2025-03-27T13:52:01Z</time>
      </trkpt>
      <trkpt lat="46.31699" lon="6.7852">
        <ele>1441.79</ele>
        <time>2025-03-27T13:52:21Z</time>
      </trkpt>
      <trkpt lat="46.31682" lon="6.78512">
        <ele>1435.81</ele>
        <time>2025-03-27T13:52:47Z</time>
      </trkpt>
      <trkpt lat="46.31665" lon="6.78524">
        <ele>1429.8</ele>
        <time>2025-03-27T13:53:15Z</time>
      </trkpt>
      <trkpt lat="46.31665" lon="6.7855">
        <ele>1428.79</ele>
        <time>2025-03-27T13:53:37Z</time>
      </trkpt>
      <trkpt lat="46.3167" lon="6.78576">
        <ele>1424.86</ele>
        <time>2025-03-27T13:54:18Z</time>
      </trkpt>
      <trkpt lat="46.31666" lon="6.78601">
        <ele>1416.82</ele>
        <time>2025-03-27T13:54:55Z</time>
      </trkpt>
      <trkpt lat="46.31653" lon="6.78621">
        <ele>1414.88</ele>
        <time>2025-03-27T13:55:22Z</time>
      </trkpt>
      <trkpt lat="46.3165" lon="6.78648">
        <ele>1404.09</ele>
        <time>2025-03-27T13:55:51Z</time>
      </trkpt>
      <trkpt lat="46.31663" lon="6.78668">
        <ele>1396.79</ele>
        <time>2025-03-27T13:56:19Z</time>
      </trkpt>
      <trkpt lat="46.31674" lon="6.78689">
        <ele>1394.09</ele>
        <time>2025-03-27T13:56:42Z</time>
      </trkpt>
      <trkpt lat="46.31661" lon="6.78709">
        <ele>1391.79</ele>
        <time>2025-03-27T13:57:17Z</time>
      </trkpt>
      <trkpt lat="46.3165" lon="6.7873">
        <ele>1387.79</ele>
        <time>2025-03-27T13:57:39Z</time>
      </trkpt>
      <trkpt lat="46.31632" lon="6.78726">
        <ele>1365.81</ele>
        <time>2025-03-27T14:01:54Z</time>
      </trkpt>
      <trkpt lat="46.31617" lon="6.78711">
        <ele>1360.79</ele>
        <time>2025-03-27T14:02:43Z</time>
      </trkpt>
      <trkpt lat="46.31601" lon="6.78696">
        <ele>1354.85</ele>
        <time>2025-03-27T14:03:18Z</time>
      </trkpt>
      <trkpt lat="46.31583" lon="6.78689">
        <ele>1351.79</ele>
        <time>2025-03-27T14:03:42Z</time>
      </trkpt>
      <trkpt lat="46.31567" lon="6.78677">
        <ele>1343.79</ele>
        <time>2025-03-27T14:04:16Z</time>
      </trkpt>
      <trkpt lat="46.31553" lon="6.78661">
        <ele>1339.8</ele>
        <time>2025-03-27T14:04:46Z</time>
      </trkpt>
      <trkpt lat="46.31536" lon="6.7865">
        <ele>1334.8</ele>
        <time>2025-03-27T14:05:20Z</time>
      </trkpt>
      <trkpt lat="46.31519" lon="6.78638">
        <ele>1328.8</ele>
        <time>2025-03-27T14:05:49Z</time>
      </trkpt>
      <trkpt lat="46.31502" lon="6.78626">
        <ele>1323.79</ele>
        <time>2025-03-27T14:06:18Z</time>
      </trkpt>
      <trkpt lat="46.31485" lon="6.78618">
        <ele>1316.79</ele>
        <time>2025-03-27T14:06:53Z</time>
      </trkpt>
      <trkpt lat="46.31466" lon="6.78617">
        <ele>1315.8</ele>
        <time>2025-03-27T14:07:13Z</time>
      </trkpt>
      <trkpt lat="46.3145" lon="6.78606">
        <ele>1317.09</ele>
        <time>2025-03-27T14:07:33Z</time>
      </trkpt>
      <trkpt lat="46.31432" lon="6.78598">
        <ele>1313.49</ele>
        <time>2025-03-27T14:07:55Z</time>
      </trkpt>
      <trkpt lat="46.31415" lon="6.78592">
        <ele>1311.57</ele>
        <time>2025-03-27T14:08:14Z</time>
      </trkpt>
      <trkpt lat="46.31396" lon="6.78592">
        <ele>1308.86</ele>
        <time>2025-03-27T14:08:35Z</time>
      </trkpt>
      <trkpt lat="46.31378" lon="6.78588">
        <ele>1306.09</ele>
        <time>2025-03-27T14:08:54Z</time>
      </trkpt>
      <trkpt lat="46.3136" lon="6.78584">
        <ele>1294.89</ele>
        <time>2025-03-27T14:09:15Z</time>
      </trkpt>
      <trkpt lat="46.31341" lon="6.78587">
        <ele>1286.54</ele>
        <time>2025-03-27T14:09:38Z</time>
      </trkpt>
      <trkpt lat="46.31323" lon="6.78588">
        <ele>1278.79</ele>
        <time>2025-03-27T14:10:01Z</time>
      </trkpt>
      <trkpt lat="46.31304" lon="6.78589">
        <ele>1278.79</ele>
        <time>2025-03-27T14:10:23Z</time>
      </trkpt>
      <trkpt lat="46.31286" lon="6.78591">
        <ele>1276.79</ele>
        <time>2025-03-27T14:11:30Z</time>
      </trkpt>
      <trkpt lat="46.31268" lon="6.78584">
        <ele>1273.88</ele>
        <time>2025-03-27T14:11:57Z</time>
      </trkpt>
      <trkpt lat="46.3125" lon="6.78575">
        <ele>1272.18</ele>
        <time>2025-03-27T14:12:15Z</time>
      </trkpt>
      <trkpt lat="46.31232" lon="6.78572">
        <ele>1267.69</ele>
        <time>2025-03-27T14:12:33Z</time>
      </trkpt>
      <trkpt lat="46.31213" lon="6.78568">
        <ele>1262.79</ele>
        <time>2025-03-27T14:12:56Z</time>
      </trkpt>
      <trkpt lat="46.31195" lon="6.78563">
        <ele>1262.82</ele>
        <time>2025-03-27T14:13:17Z</time>
      </trkpt>
      <trkpt lat="46.31178" lon="6.78553">
        <ele>1258.8</ele>
        <time>2025-03-27T14:13:36Z</time>
      </trkpt>
      <trkpt lat="46.31163" lon="6.78536">
        <ele>1246.09</ele>
        <time>2025-03-27T14:15:46Z</time>
      </trkpt>
      <trkpt lat="46.31145" lon="6.78529">
        <ele>1240.79</ele>
        <time>2025-03-27T14:17:14Z</time>
      </trkpt>
      <trkpt lat="46.31126" lon="6.78527">
        <ele>1237.79</ele>
        <time>2025-03-27T14:17:42Z</time>
      </trkpt>
      <trkpt lat="46.31108" lon="6.78527">
        <ele>1233.88</ele>
        <time>2025-03-27T14:18:00Z</time>
      </trkpt>
      <trkpt lat="46.31089" lon="6.78522">
        <ele>1231.88</ele>
        <time>2025-03-27T14:18:20Z</time>
      </trkpt>
      <trkpt lat="46.3107" lon="6.78522">
        <ele>1228.82</ele>
        <time>2025-03-27T14:18:36Z</time>
      </trkpt>
      <trkpt lat="46.31052" lon="6.78526">
        <ele>1227.79</ele>
        <time>2025-03-27T14:18:49Z</time>
      </trkpt>
      <trkpt lat="46.31034" lon="6.78529">
        <ele>1227.09</ele>
        <time>2025-03-27T14:19:06Z</time>
      </trkpt>
      <trkpt lat="46.31016" lon="6.78534">
        <ele>1223.49</ele>
        <time>2025-03-27T14:19:26Z</time>
      </trkpt>
      <trkpt lat="46.30998" lon="6.78542">
        <ele>1222.79</ele>
        <time>2025-03-27T14:19:51Z</time>
      </trkpt>
      <trkpt lat="46.30991" lon="6.78566">
        <ele>1218.79</ele>
        <time>2025-03-27T14:20:04Z</time>
      </trkpt>
      <trkpt lat="46.30992" lon="6.78593">
        <ele>1216.82</ele>
        <time>2025-03-27T14:20:19Z</time>
      </trkpt>
    </trkseg>
  </trk>
</gpx>